createdAt,value
2019-05-01T00:01:26.709Z,5.74
2019-05-01T00:04:10.080Z,5.61
2019-05-01T00:06:41.448Z,5.51
2019-05-01T00:09:11.628Z,5.47
2019-05-01T00:11:41.608Z,5.41
2019-05-01T00:14:11.412Z,5.38
2019-05-01T00:16:41.593Z,5.37
2019-05-01T00:19:11.311Z,5.30
2019-05-01T00:21:41.122Z,5.30
2019-05-01T00:24:10.902Z,5.26
2019-05-01T00:26:40.662Z,5.24
2019-05-01T00:29:10.442Z,5.18
2019-05-01T00:31:40.224Z,5.21
2019-05-01T00:34:10.104Z,5.05
2019-05-01T00:36:39.922Z,4.99
2019-05-01T00:39:11.205Z,4.96
2019-05-01T00:41:40.984Z,5.01
2019-05-01T00:44:10.783Z,4.96
2019-05-01T00:46:40.554Z,4.90
2019-05-01T00:49:10.342Z,4.90
2019-05-01T00:51:40.110Z,4.82
2019-05-01T00:54:09.843Z,4.80
2019-05-01T00:56:44.326Z,4.77
2019-05-01T00:59:16.505Z,4.77
2019-05-01T01:01:53.642Z,4.76
2019-05-01T01:04:23.444Z,4.75
2019-05-01T01:06:53.110Z,4.75
2019-05-01T01:09:22.872Z,4.70
2019-05-01T01:11:52.683Z,4.69
2019-05-01T01:14:22.462Z,4.73
2019-05-01T01:16:52.203Z,4.70
2019-05-01T01:19:22.005Z,4.66
2019-05-01T01:21:51.748Z,4.65
2019-05-01T01:24:21.443Z,4.65
2019-05-01T01:26:51.244Z,4.63
2019-05-01T01:29:20.982Z,4.61
2019-05-01T01:31:50.722Z,4.49
2019-05-01T01:34:20.504Z,4.42
2019-05-01T01:36:50.266Z,4.29
2019-05-01T01:39:20.003Z,4.21
2019-05-01T01:41:49.882Z,4.23
2019-05-01T01:44:21.244Z,4.12
2019-05-01T01:46:58.454Z,4.10
2019-05-01T01:49:28.229Z,4.07
2019-05-01T01:51:58.028Z,4.08
2019-05-01T01:54:27.929Z,3.99
2019-05-01T01:56:57.849Z,3.98
2019-05-01T01:59:27.770Z,3.95
2019-05-01T02:02:15.301Z,3.89
2019-05-01T02:04:49.598Z,3.81
2019-05-01T02:07:19.387Z,3.73
2019-05-01T02:09:49.173Z,3.72
2019-05-01T02:12:18.969Z,3.80
2019-05-01T02:14:48.667Z,3.68
2019-05-01T02:17:18.487Z,3.71
2019-05-01T02:19:48.270Z,3.67
2019-05-01T02:22:18.047Z,3.72
2019-05-01T02:24:47.889Z,3.74
2019-05-01T02:27:19.763Z,3.76
2019-05-01T02:29:54.029Z,3.71
2019-05-01T02:32:24.387Z,3.66
2019-05-01T02:34:55.570Z,3.53
2019-05-01T02:37:25.991Z,3.47
2019-05-01T02:39:56.888Z,3.45
2019-05-01T02:42:28.753Z,3.45
2019-05-01T02:45:00.049Z,3.52
2019-05-01T02:47:32.488Z,3.48
2019-05-01T02:50:08.290Z,3.35
2019-05-01T02:52:38.990Z,3.32
2019-05-01T02:55:11.727Z,3.29
2019-05-01T02:57:41.934Z,3.32
2019-05-01T03:00:12.012Z,3.31
2019-05-01T03:02:41.787Z,3.25
2019-05-01T03:05:11.605Z,3.18
2019-05-01T03:07:41.884Z,3.19
2019-05-01T03:10:12.064Z,3.18
2019-05-01T03:12:44.184Z,3.12
2019-05-01T03:15:14.043Z,3.03
2019-05-01T03:18:03.944Z,3.03
2019-05-01T03:20:51.366Z,2.99
2019-05-01T03:23:37.900Z,2.90
2019-05-01T03:26:08.066Z,2.84
2019-05-01T03:28:38.044Z,2.95
2019-05-01T03:31:07.836Z,3.03
2019-05-01T03:33:37.610Z,3.03
2019-05-01T03:36:07.483Z,3.10
2019-05-01T03:38:37.588Z,3.05
2019-05-01T03:41:07.341Z,3.02
2019-05-01T03:43:37.137Z,3.06
2019-05-01T03:46:06.892Z,3.00
2019-05-01T03:48:36.669Z,2.91
2019-05-01T03:51:06.534Z,2.88
2019-05-01T03:53:36.376Z,2.81
2019-05-01T03:56:06.255Z,2.90
2019-05-01T03:58:36.024Z,2.87
2019-05-01T04:01:25.812Z,2.87
2019-05-01T04:03:59.923Z,2.83
2019-05-01T04:06:29.794Z,2.77
2019-05-01T04:08:59.607Z,2.75
2019-05-01T04:11:29.501Z,2.89
2019-05-01T04:13:59.330Z,3.07
2019-05-01T04:16:29.146Z,3.01
2019-05-01T04:18:59.128Z,2.98
2019-05-01T04:21:30.816Z,3.06
2019-05-01T04:24:01.186Z,3.15
2019-05-01T04:26:31.574Z,3.26
2019-05-01T04:29:15.200Z,3.34
2019-05-01T04:31:46.515Z,3.68
2019-05-01T04:34:20.561Z,4.07
2019-05-01T04:36:51.895Z,4.30
2019-05-01T04:39:21.955Z,4.52
2019-05-01T04:41:52.059Z,5.01
2019-05-01T04:44:21.934Z,5.71
2019-05-01T04:46:53.586Z,5.90
2019-05-01T04:49:23.427Z,6.06
2019-05-01T04:51:53.206Z,6.59
2019-05-01T04:54:23.007Z,6.68
2019-05-01T04:56:53.207Z,6.75
2019-05-01T04:59:23.048Z,6.94
2019-05-01T05:01:57.033Z,7.31
2019-05-01T05:04:27.665Z,7.32
2019-05-01T05:06:57.448Z,7.43
2019-05-01T05:09:41.027Z,7.30
2019-05-01T05:12:12.445Z,7.40
2019-05-01T05:14:46.312Z,7.62
2019-05-01T05:17:17.688Z,7.52
2019-05-01T05:19:47.669Z,7.56
2019-05-01T05:22:17.480Z,7.49
2019-05-01T05:24:48.069Z,7.42
2019-05-01T05:27:18.523Z,7.25
2019-05-01T05:29:49.220Z,6.79
2019-05-01T05:32:20.453Z,6.78
2019-05-01T05:34:51.821Z,6.95
2019-05-01T05:37:23.688Z,7.05
2019-05-01T05:39:53.434Z,7.03
2019-05-01T05:42:23.172Z,7.09
2019-05-01T05:44:57.466Z,7.17
2019-05-01T05:47:29.007Z,7.30
2019-05-01T05:49:59.171Z,7.48
2019-05-01T05:52:31.984Z,7.47
2019-05-01T05:55:09.627Z,7.54
2019-05-01T05:57:57.486Z,7.78
2019-05-01T06:00:34.786Z,8.01
2019-05-01T06:03:09.510Z,8.12
2019-05-01T06:05:41.645Z,8.39
2019-05-01T06:08:23.606Z,8.72
2019-05-01T06:11:11.353Z,8.93
2019-05-01T06:13:57.105Z,9.36
2019-05-01T06:16:34.445Z,9.48
2019-05-01T06:19:16.347Z,9.69
2019-05-01T06:21:48.461Z,9.80
2019-05-01T06:24:19.897Z,9.92
2019-05-01T06:26:49.690Z,10.07
2019-05-01T06:29:19.595Z,10.24
2019-05-01T06:31:54.015Z,10.39
2019-05-01T06:34:28.701Z,10.52
2019-05-01T06:36:55.775Z,10.53
2019-05-01T06:39:28.273Z,10.52
2019-05-01T06:41:58.212Z,10.74
2019-05-01T06:44:39.157Z,10.90
2019-05-01T06:47:10.026Z,11.06
2019-05-01T06:50:01.101Z,11.21
2019-05-01T06:52:30.753Z,11.36
2019-05-01T06:55:00.676Z,11.47
2019-05-01T06:57:30.988Z,11.40
2019-05-01T07:00:03.121Z,11.66
2019-05-01T07:02:35.098Z,11.79
2019-05-01T07:05:04.088Z,11.89
2019-05-01T07:07:34.316Z,12.04
2019-05-01T07:10:05.767Z,12.24
2019-05-01T07:12:35.875Z,12.64
2019-05-01T07:15:06.434Z,12.73
2019-05-01T07:17:36.207Z,13.05
2019-05-01T07:20:16.814Z,13.38
2019-05-01T07:22:45.726Z,13.68
2019-05-01T07:25:15.563Z,13.92
2019-05-01T07:27:45.289Z,14.36
2019-05-01T07:30:19.714Z,14.21
2019-05-01T07:32:49.545Z,14.28
2019-05-01T07:35:20.829Z,14.50
2019-05-01T07:37:53.267Z,14.13
2019-05-01T07:40:28.873Z,14.94
2019-05-01T07:43:12.588Z,15.14
2019-05-01T07:45:55.889Z,15.41
2019-05-01T07:48:36.257Z,15.55
2019-05-01T07:51:06.859Z,15.53
2019-05-01T07:53:38.687Z,15.68
2019-05-01T07:56:08.501Z,15.66
2019-05-01T07:58:39.108Z,15.66
2019-05-01T08:01:20.186Z,15.81
2019-05-01T08:03:50.153Z,15.89
2019-05-01T08:06:21.776Z,15.81
2019-05-01T08:08:51.396Z,15.89
2019-05-01T08:11:21.393Z,16.12
2019-05-01T08:13:51.311Z,16.03
2019-05-01T08:16:21.232Z,15.84
2019-05-01T08:18:59.035Z,15.82
2019-05-01T08:21:28.469Z,16.11
2019-05-01T08:23:58.641Z,16.00
2019-05-01T08:26:28.500Z,16.02
2019-05-01T08:29:06.846Z,16.03
2019-05-01T08:31:52.487Z,16.25
2019-05-01T08:34:33.150Z,16.30
2019-05-01T08:37:02.745Z,16.37
2019-05-01T08:39:32.447Z,16.38
2019-05-01T08:42:02.920Z,16.45
2019-05-01T08:44:41.308Z,16.73
2019-05-01T08:47:27.832Z,17.08
2019-05-01T08:50:04.987Z,16.98
2019-05-01T08:52:34.901Z,16.82
2019-05-01T08:55:09.228Z,16.75
2019-05-01T08:57:39.280Z,16.84
2019-05-01T09:00:09.828Z,16.86
2019-05-01T09:02:41.669Z,16.80
2019-05-01T09:05:27.700Z,17.04
2019-05-01T09:07:46.750Z,16.87
2019-05-01T09:10:21.055Z,17.04
2019-05-01T09:12:48.785Z,17.22
2019-05-01T09:15:19.747Z,17.07
2019-05-01T09:17:49.638Z,16.91
2019-05-01T09:20:19.389Z,16.69
2019-05-01T09:22:49.164Z,16.55
2019-05-01T09:25:20.507Z,16.42
2019-05-01T09:28:05.955Z,16.71
2019-05-01T09:30:52.490Z,16.63
2019-05-01T09:33:26.140Z,16.65
2019-05-01T09:35:53.713Z,16.76
2019-05-01T09:38:23.548Z,16.49
2019-05-01T09:40:53.367Z,16.44
2019-05-01T09:43:23.567Z,16.39
2019-05-01T09:45:53.369Z,16.60
2019-05-01T09:48:23.167Z,16.50
2019-05-01T09:50:54.514Z,16.25
2019-05-01T09:53:29.655Z,16.33
2019-05-01T09:56:03.186Z,16.42
2019-05-01T09:58:33.247Z,16.27
2019-05-01T10:01:03.069Z,16.46
2019-05-01T10:03:32.820Z,16.30
2019-05-01T10:06:02.596Z,16.28
2019-05-01T10:08:34.937Z,16.51
2019-05-01T10:11:06.963Z,16.55
2019-05-01T10:13:35.270Z,16.53
2019-05-01T10:16:05.208Z,16.46
2019-05-01T10:18:34.989Z,16.44
2019-05-01T10:21:04.789Z,16.51
2019-05-01T10:23:34.669Z,16.59
2019-05-01T10:26:05.994Z,16.63
2019-05-01T10:28:40.057Z,16.78
2019-05-01T10:31:23.536Z,16.54
2019-05-01T10:34:02.787Z,16.58
2019-05-01T10:36:33.754Z,16.59
2019-05-01T10:39:05.131Z,16.80
2019-05-01T10:41:34.903Z,16.66
2019-05-01T10:44:04.834Z,16.72
2019-05-01T10:46:34.632Z,16.69
2019-05-01T10:49:04.392Z,16.84
2019-05-01T10:51:34.219Z,16.29
2019-05-01T10:54:04.033Z,16.18
2019-05-01T10:56:33.833Z,16.06
2019-05-01T10:59:03.712Z,16.16
2019-05-01T11:01:41.119Z,16.19
2019-05-01T11:04:13.272Z,16.19
2019-05-01T11:06:43.055Z,16.23
2019-05-01T11:09:12.914Z,15.99
2019-05-01T11:11:42.732Z,15.93
2019-05-01T11:14:12.531Z,15.95
2019-05-01T11:16:42.309Z,16.33
2019-05-01T11:19:12.288Z,16.24
2019-05-01T11:21:42.082Z,16.18
2019-05-01T11:24:11.858Z,16.24
2019-05-01T11:26:41.653Z,16.15
2019-05-01T11:29:11.478Z,16.18
2019-05-01T11:31:45.778Z,16.35
2019-05-01T11:34:22.872Z,16.44
2019-05-01T11:37:10.412Z,16.48
2019-05-01T11:39:42.168Z,16.54
2019-05-01T11:42:15.451Z,16.49
2019-05-01T11:44:45.277Z,16.57
2019-05-01T11:47:15.019Z,16.55
2019-05-01T11:49:44.811Z,16.31
2019-05-01T11:52:14.577Z,16.30
2019-05-01T11:54:44.484Z,16.26
2019-05-01T11:57:14.246Z,16.34
2019-05-01T11:59:44.024Z,16.26
2019-05-01T12:02:13.859Z,16.28
2019-05-01T12:04:45.460Z,16.28
2019-05-01T12:07:15.304Z,15.87
2019-05-01T12:09:45.064Z,15.88
2019-05-01T12:12:16.426Z,15.77
2019-05-01T12:14:46.523Z,15.74
2019-05-01T12:17:17.926Z,15.83
2019-05-01T12:19:47.704Z,15.74
2019-05-01T12:22:17.503Z,15.87
2019-05-01T12:24:47.304Z,15.91
2019-05-01T12:27:17.109Z,15.96
2019-05-01T12:29:46.890Z,16.00
2019-05-01T12:32:16.670Z,16.06
2019-05-01T12:34:46.489Z,16.13
2019-05-01T12:37:20.769Z,16.26
2019-05-01T12:39:50.624Z,16.45
2019-05-01T12:42:24.869Z,16.77
2019-05-01T12:44:54.711Z,16.80
2019-05-01T12:47:44.484Z,16.73
2019-05-01T12:50:15.931Z,16.51
2019-05-01T12:52:47.391Z,16.55
2019-05-01T12:55:37.195Z,16.46
2019-05-01T12:58:06.930Z,16.34
2019-05-01T13:00:49.368Z,16.27
2019-05-01T13:03:19.158Z,16.26
2019-05-01T13:05:48.908Z,16.31
2019-05-01T13:08:18.730Z,16.38
2019-05-01T13:10:49.929Z,16.49
2019-05-01T13:13:19.710Z,16.54
2019-05-01T13:15:49.476Z,16.34
2019-05-01T13:18:19.271Z,16.12
2019-05-01T13:20:49.069Z,16.19
2019-05-01T13:23:19.189Z,16.30
2019-05-01T13:25:49.928Z,16.71
2019-05-01T13:28:37.752Z,16.82
2019-05-01T13:31:09.108Z,16.95
2019-05-01T13:33:38.870Z,16.86
2019-05-01T13:36:08.628Z,16.83
2019-05-01T13:38:38.409Z,16.67
2019-05-01T13:41:08.160Z,16.66
2019-05-01T13:43:37.896Z,16.65
2019-05-01T13:46:07.654Z,16.40
2019-05-01T13:48:37.395Z,16.29
2019-05-01T13:51:07.211Z,16.22
2019-05-01T13:53:37.015Z,16.22
2019-05-01T13:56:06.877Z,16.15
2019-05-01T13:58:36.695Z,16.11
2019-05-01T14:01:06.595Z,16.24
2019-05-01T14:03:36.315Z,16.18
2019-05-01T14:06:06.134Z,16.05
2019-05-01T14:08:35.915Z,15.98
2019-05-01T14:11:05.721Z,16.05
2019-05-01T14:13:35.534Z,16.05
2019-05-01T14:16:05.317Z,16.04
2019-05-01T14:18:35.068Z,15.95
2019-05-01T14:21:13.055Z,15.85
2019-05-01T14:24:00.835Z,15.84
2019-05-01T14:26:31.575Z,15.83
2019-05-01T14:29:01.351Z,15.77
2019-05-01T14:31:31.155Z,15.71
2019-05-01T14:34:00.956Z,15.74
2019-05-01T14:36:30.718Z,15.77
2019-05-01T14:39:00.535Z,15.76
2019-05-01T14:41:30.382Z,15.68
2019-05-01T14:44:00.141Z,15.55
2019-05-01T14:46:29.885Z,15.56
2019-05-01T14:48:59.735Z,15.43
2019-05-01T14:51:29.901Z,15.51
2019-05-01T14:53:59.674Z,15.47
2019-05-01T14:56:29.575Z,15.50
2019-05-01T14:58:59.435Z,15.45
2019-05-01T15:01:29.213Z,15.48
2019-05-01T15:03:58.883Z,15.51
2019-05-01T15:06:28.595Z,15.23
2019-05-01T15:08:58.254Z,15.39
2019-05-01T15:11:28.054Z,15.42
2019-05-01T15:14:02.187Z,15.46
2019-05-01T15:16:39.704Z,15.47
2019-05-01T15:19:11.082Z,15.49
2019-05-01T15:21:40.845Z,15.59
2019-05-01T15:24:10.763Z,15.65
2019-05-01T15:26:40.543Z,15.52
2019-05-01T15:29:10.322Z,15.46
2019-05-01T15:31:40.144Z,15.59
2019-05-01T15:34:09.902Z,15.49
2019-05-01T15:36:39.542Z,15.49
2019-05-01T15:39:11.403Z,15.39
2019-05-01T15:41:42.741Z,15.34
2019-05-01T15:44:19.469Z,15.23
2019-05-01T15:46:49.251Z,15.37
2019-05-01T15:49:19.069Z,15.28
2019-05-01T15:51:48.869Z,15.33
2019-05-01T15:54:18.829Z,15.49
2019-05-01T15:56:48.577Z,15.46
2019-05-01T15:59:18.389Z,15.30
2019-05-01T16:01:48.169Z,15.19
2019-05-01T16:04:17.988Z,15.12
2019-05-01T16:06:48.870Z,14.94
2019-05-01T16:09:18.689Z,14.81
2019-05-01T16:11:50.068Z,14.93
2019-05-01T16:14:19.917Z,14.99
2019-05-01T16:16:49.689Z,14.99
2019-05-01T16:19:19.489Z,14.79
2019-05-01T16:21:49.328Z,14.68
2019-05-01T16:24:19.135Z,14.71
2019-05-01T16:26:48.909Z,14.71
2019-05-01T16:29:18.769Z,14.82
2019-05-01T16:31:48.451Z,14.73
2019-05-01T16:34:19.088Z,14.64
2019-05-01T16:36:49.209Z,14.55
2019-05-01T16:39:37.581Z,14.34
2019-05-01T16:42:07.587Z,14.28
2019-05-01T16:44:37.422Z,14.36
2019-05-01T16:47:07.256Z,14.23
2019-05-01T16:49:38.190Z,14.23
2019-05-01T16:52:08.276Z,14.27
2019-05-01T16:54:38.062Z,14.23
2019-05-01T16:57:09.483Z,14.21
2019-05-01T16:59:39.262Z,14.16
2019-05-01T17:02:10.960Z,14.10
2019-05-01T17:04:51.460Z,14.10
2019-05-01T17:07:25.824Z,14.12
2019-05-01T17:09:57.224Z,14.14
2019-05-01T17:12:29.042Z,13.95
2019-05-01T17:14:58.822Z,13.86
2019-05-01T17:17:29.102Z,13.96
2019-05-01T17:19:58.922Z,13.94
2019-05-01T17:22:31.521Z,13.96
2019-05-01T17:25:02.342Z,13.18
2019-05-01T17:27:32.096Z,13.79
2019-05-01T17:30:02.434Z,13.59
2019-05-01T17:32:32.242Z,13.48
2019-05-01T17:35:06.515Z,13.41
2019-05-01T17:37:33.546Z,13.39
2019-05-01T17:40:03.815Z,13.30
2019-05-01T17:42:37.665Z,13.55
2019-05-01T17:45:07.005Z,13.62
2019-05-01T17:47:37.287Z,13.45
2019-05-01T17:50:16.501Z,13.39
2019-05-01T17:52:44.759Z,13.17
2019-05-01T17:55:14.533Z,13.12
2019-05-01T17:57:44.405Z,13.06
2019-05-01T18:00:33.799Z,13.03
2019-05-01T18:03:21.766Z,12.84
2019-05-01T18:06:00.874Z,12.66
2019-05-01T18:08:27.626Z,12.48
2019-05-01T18:10:57.446Z,12.68
2019-05-01T18:13:28.548Z,12.64
2019-05-01T18:15:58.425Z,12.46
2019-05-01T18:18:28.365Z,12.31
2019-05-01T18:20:58.426Z,12.14
2019-05-01T18:23:30.141Z,12.01
2019-05-01T18:26:19.264Z,11.91
2019-05-01T18:28:53.483Z,11.82
2019-05-01T18:31:27.904Z,11.73
2019-05-01T18:34:02.480Z,11.66
2019-05-01T18:36:31.485Z,11.58
2019-05-01T18:39:16.390Z,11.51
2019-05-01T18:41:49.550Z,11.44
2019-05-01T18:44:21.576Z,11.37
2019-05-01T18:46:57.783Z,11.31
2019-05-01T18:49:28.146Z,11.24
2019-05-01T18:51:58.191Z,11.18
2019-05-01T18:54:30.481Z,11.09
2019-05-01T18:57:02.235Z,11.08
2019-05-01T18:59:32.086Z,11.08
2019-05-01T19:02:06.025Z,10.99
2019-05-01T19:04:46.385Z,10.90
2019-05-01T19:07:24.067Z,10.78
2019-05-01T19:09:54.310Z,10.74
2019-05-01T19:12:24.409Z,10.92
2019-05-01T19:14:55.926Z,10.89
2019-05-01T19:17:27.591Z,10.79
2019-05-01T19:19:58.436Z,10.89
2019-05-01T19:22:30.409Z,11.06
2019-05-01T19:25:01.652Z,10.92
2019-05-01T19:27:33.315Z,10.83
2019-05-01T19:30:09.482Z,10.73
2019-05-01T19:32:50.525Z,10.68
2019-05-01T19:35:29.219Z,10.89
2019-05-01T19:37:59.037Z,11.25
2019-05-01T19:40:35.622Z,11.09
2019-05-01T19:43:06.026Z,10.98
2019-05-01T19:45:38.304Z,10.80
2019-05-01T19:48:12.676Z,10.72
2019-05-01T19:50:48.358Z,10.74
2019-05-01T19:53:19.086Z,11.09
2019-05-01T19:55:49.419Z,11.07
2019-05-01T19:58:20.883Z,10.99
2019-05-01T20:00:55.848Z,10.91
2019-05-01T20:03:30.695Z,10.84
2019-05-01T20:05:59.561Z,10.81
2019-05-01T20:08:31.565Z,10.77
2019-05-01T20:11:01.554Z,10.74
2019-05-01T20:13:31.985Z,10.82
2019-05-01T20:16:05.709Z,10.50
2019-05-01T20:18:36.265Z,10.82
2019-05-01T20:21:08.196Z,10.75
2019-05-01T20:23:38.450Z,10.65
2019-05-01T20:26:08.350Z,10.57
2019-05-01T20:29:00.462Z,10.51
2019-05-01T20:31:33.139Z,10.50
2019-05-01T20:34:04.245Z,10.44
2019-05-01T20:36:35.241Z,10.41
2019-05-01T20:39:08.925Z,10.36
2019-05-01T20:41:40.091Z,10.35
2019-05-01T20:44:09.964Z,10.33
2019-05-01T20:46:44.225Z,10.32
2019-05-01T20:49:15.093Z,10.27
2019-05-01T20:51:45.911Z,10.24
2019-05-01T20:54:16.664Z,10.24
2019-05-01T20:56:48.948Z,10.26
2019-05-01T20:59:18.887Z,10.27
2019-05-01T21:01:50.071Z,10.24
2019-05-01T21:04:23.142Z,10.25
2019-05-01T21:07:08.053Z,10.25
2019-05-01T21:09:57.886Z,10.27
2019-05-01T21:12:29.075Z,10.18
2019-05-01T21:15:01.381Z,10.15
2019-05-01T21:17:31.181Z,10.14
2019-05-01T21:20:03.770Z,10.16
2019-05-01T21:22:36.480Z,10.31
2019-05-01T21:25:06.510Z,10.44
2019-05-01T21:27:38.388Z,10.44
2019-05-01T21:30:09.575Z,10.40
2019-05-01T21:32:39.259Z,10.35
2019-05-01T21:35:09.047Z,10.31
2019-05-01T21:37:43.606Z,10.30
2019-05-01T21:40:13.400Z,10.23
2019-05-01T21:42:47.294Z,10.16
2019-05-01T21:45:14.560Z,10.14
2019-05-01T21:47:47.677Z,10.12
2019-05-01T21:50:22.132Z,10.11
2019-05-01T21:52:50.386Z,10.09
2019-05-01T21:55:20.168Z,10.04
2019-05-01T21:57:55.097Z,10.00
2019-05-01T22:00:28.277Z,9.98
2019-05-01T22:02:59.036Z,9.96
2019-05-01T22:05:28.948Z,9.96
2019-05-01T22:08:03.817Z,9.89
2019-05-01T22:10:30.735Z,9.83
2019-05-01T22:13:00.589Z,9.73
2019-05-01T22:15:31.981Z,9.69
2019-05-01T22:18:03.319Z,9.70
2019-05-01T22:20:41.038Z,9.66
2019-05-01T22:23:22.105Z,9.66
2019-05-01T22:25:55.161Z,9.59
2019-05-01T22:28:26.522Z,9.59
2019-05-01T22:31:00.969Z,9.53
2019-05-01T22:33:30.801Z,9.50
2019-05-01T22:36:00.565Z,9.46
2019-05-01T22:38:30.297Z,9.42
2019-05-01T22:41:13.330Z,9.43
2019-05-01T22:43:43.883Z,9.44
2019-05-01T22:46:15.176Z,8.64
2019-05-01T22:48:45.529Z,9.50
2019-05-01T22:51:21.308Z,9.53
2019-05-01T22:53:54.483Z,9.50
2019-05-01T22:56:27.698Z,9.48
2019-05-01T22:58:57.908Z,9.42
2019-05-01T23:01:28.423Z,9.38
2019-05-01T23:03:59.743Z,9.39
2019-05-01T23:06:29.774Z,9.37
2019-05-01T23:08:59.584Z,9.39
2019-05-01T23:11:31.582Z,9.39
2019-05-01T23:14:03.749Z,9.38
2019-05-01T23:16:35.043Z,9.34
2019-05-01T23:19:04.898Z,9.31
2019-05-01T23:21:37.965Z,9.30
2019-05-01T23:24:08.513Z,9.23
2019-05-01T23:26:38.430Z,9.29
2019-05-01T23:29:10.615Z,9.36
2019-05-01T23:31:40.394Z,9.51
2019-05-01T23:34:11.019Z,9.50
2019-05-01T23:36:44.075Z,9.48
2019-05-01T23:39:15.267Z,9.50
2019-05-01T23:41:47.664Z,9.51
2019-05-01T23:44:17.434Z,9.53
2019-05-01T23:46:47.202Z,9.59
2019-05-01T23:49:16.964Z,9.55
2019-05-01T23:51:46.714Z,9.52
2019-05-01T23:54:17.514Z,9.52
2019-05-01T23:56:47.376Z,9.51
2019-05-01T23:59:17.166Z,9.52
